createdAt,value
2022-11-27T00:00:17.570Z,0.00
2022-11-27T00:01:17.577Z,0.00
2022-11-27T00:02:17.582Z,0.00
2022-11-27T00:03:17.669Z,0.00
2022-11-27T00:04:17.598Z,0.00
2022-11-27T00:05:17.506Z,0.00
2022-11-27T00:06:17.520Z,0.00
2022-11-27T00:07:17.590Z,0.00
2022-11-27T00:08:17.483Z,0.00
2022-11-27T00:09:17.461Z,0.00
2022-11-27T00:10:17.467Z,0.00
2022-11-27T00:11:17.497Z,0.00
2022-11-27T00:12:17.445Z,0.00
2022-11-27T00:13:17.414Z,0.00
2022-11-27T00:14:17.429Z,0.00
2022-11-27T00:15:17.571Z,0.00
2022-11-27T00:16:17.470Z,0.00
2022-11-27T00:17:17.375Z,0.00
2022-11-27T00:18:17.361Z,0.00
2022-11-27T00:19:17.346Z,0.00
2022-11-27T00:20:17.359Z,0.00
2022-11-27T00:21:17.380Z,0.00
2022-11-27T00:22:17.348Z,0.00
2022-11-27T00:23:17.312Z,0.00
2022-11-27T00:24:17.294Z,0.00
2022-11-27T00:25:17.289Z,0.00
2022-11-27T00:26:17.317Z,0.00
2022-11-27T00:27:17.271Z,0.00
2022-11-27T00:28:17.233Z,0.00
2022-11-27T00:29:17.245Z,0.00
2022-11-27T00:30:17.219Z,0.00
2022-11-27T00:31:17.360Z,0.00
2022-11-27T00:32:17.197Z,0.00
2022-11-27T00:33:17.199Z,0.00
2022-11-27T00:34:17.174Z,0.00
2022-11-27T00:35:17.180Z,0.00
2022-11-27T00:36:17.202Z,0.00
2022-11-27T00:37:17.152Z,0.00
2022-11-27T00:38:17.158Z,0.00
2022-11-27T00:39:17.122Z,0.00
2022-11-27T00:40:17.124Z,0.00
2022-11-27T00:41:17.121Z,0.00
2022-11-27T00:42:17.106Z,0.00
2022-11-27T00:43:17.079Z,0.00
2022-11-27T00:44:17.068Z,0.00
2022-11-27T00:45:17.062Z,0.00
2022-11-27T00:46:17.137Z,0.00
2022-11-27T00:47:17.051Z,0.00
2022-11-27T00:48:17.027Z,0.00
2022-11-27T00:49:17.010Z,0.00
2022-11-27T00:50:16.997Z,0.00
2022-11-27T00:51:17.010Z,0.00
2022-11-27T00:52:16.949Z,0.00
2022-11-27T00:53:16.944Z,0.00
2022-11-27T00:54:16.931Z,0.00
2022-11-27T00:55:16.947Z,0.00
2022-11-27T00:56:16.969Z,0.00
2022-11-27T00:57:16.936Z,0.00
2022-11-27T00:58:16.912Z,0.00
2022-11-27T00:59:16.905Z,0.00
2022-11-27T01:00:16.883Z,0.00
2022-11-27T01:01:16.944Z,0.00
2022-11-27T01:02:16.949Z,0.00
2022-11-27T01:03:16.957Z,0.00
2022-11-27T01:04:16.842Z,0.00
2022-11-27T01:05:16.853Z,0.00
2022-11-27T01:06:16.848Z,0.00
2022-11-27T01:07:16.864Z,0.00
2022-11-27T01:08:16.780Z,0.00
2022-11-27T01:09:16.789Z,0.00
2022-11-27T01:10:16.756Z,0.00
2022-11-27T01:11:16.787Z,0.00
2022-11-27T01:12:16.749Z,0.00
2022-11-27T01:13:16.722Z,0.00
2022-11-27T01:14:16.704Z,0.00
2022-11-27T01:15:16.698Z,0.00
2022-11-27T01:16:16.783Z,0.00
2022-11-27T01:17:16.684Z,0.00
2022-11-27T01:18:16.701Z,0.00
2022-11-27T01:19:16.664Z,0.00
2022-11-27T01:20:16.638Z,0.00
2022-11-27T01:21:16.673Z,0.00
2022-11-27T01:22:16.646Z,0.00
2022-11-27T01:23:16.611Z,0.00
2022-11-27T01:24:16.584Z,0.00
2022-11-27T01:25:16.589Z,0.00
2022-11-27T01:26:16.596Z,0.00
2022-11-27T01:27:16.563Z,0.00
2022-11-27T01:28:16.562Z,0.00
2022-11-27T01:29:16.535Z,0.00
2022-11-27T01:30:16.526Z,0.00
2022-11-27T01:31:16.606Z,0.00
2022-11-27T01:32:16.546Z,0.00
2022-11-27T01:33:16.498Z,0.00
2022-11-27T01:34:16.480Z,0.00
2022-11-27T01:35:16.475Z,0.00
2022-11-27T01:36:16.460Z,0.00
2022-11-27T01:37:16.478Z,0.00
2022-11-27T01:38:16.441Z,0.00
2022-11-27T01:39:16.437Z,0.00
2022-11-27T01:40:16.424Z,0.00
2022-11-27T01:41:16.393Z,0.00
2022-11-27T01:42:16.425Z,0.00
2022-11-27T01:43:16.373Z,0.00
2022-11-27T01:44:16.382Z,0.00
2022-11-27T01:45:16.354Z,0.00
2022-11-27T01:46:16.388Z,0.00
2022-11-27T01:47:16.371Z,0.00
2022-11-27T01:48:16.346Z,0.00
2022-11-27T01:49:16.323Z,0.00
2022-11-27T01:50:16.300Z,0.00
2022-11-27T01:51:16.317Z,0.00
2022-11-27T01:52:16.305Z,0.00
2022-11-27T01:53:16.278Z,0.00
2022-11-27T01:54:16.257Z,0.00
2022-11-27T01:55:16.243Z,0.00
2022-11-27T01:56:16.234Z,0.00
2022-11-27T01:57:16.245Z,0.00
2022-11-27T01:58:16.197Z,0.00
2022-11-27T01:59:16.189Z,0.00
2022-11-27T02:00:16.174Z,0.00
2022-11-27T02:01:16.256Z,0.00
2022-11-27T02:02:16.293Z,0.00
2022-11-27T02:03:16.281Z,0.00
2022-11-27T02:04:16.143Z,0.00
2022-11-27T02:05:16.116Z,0.00
2022-11-27T02:06:16.109Z,0.00
2022-11-27T02:07:16.188Z,0.00
2022-11-27T02:08:16.093Z,0.00
2022-11-27T02:09:16.081Z,0.00
2022-11-27T02:10:16.075Z,0.00
2022-11-27T02:11:16.061Z,0.00
2022-11-27T02:12:16.076Z,0.00
2022-11-27T02:13:16.028Z,0.00
2022-11-27T02:14:16.027Z,0.00
2022-11-27T02:15:16.018Z,0.00
2022-11-27T02:16:18.146Z,0.00
2022-11-27T02:17:16.040Z,0.00
2022-11-27T02:18:15.966Z,0.00
2022-11-27T02:19:15.966Z,0.00
2022-11-27T02:20:15.955Z,0.00
2022-11-27T02:21:15.952Z,0.00
2022-11-27T02:22:15.953Z,0.00
2022-11-27T02:23:15.927Z,0.00
2022-11-27T02:24:15.912Z,0.00
2022-11-27T02:25:15.893Z,0.00
2022-11-27T02:26:15.898Z,0.00
2022-11-27T02:27:15.924Z,0.00
2022-11-27T02:28:15.894Z,0.00
2022-11-27T02:29:15.861Z,0.00
2022-11-27T02:30:15.840Z,0.00
2022-11-27T02:31:15.882Z,0.00
2022-11-27T02:32:15.805Z,0.00
2022-11-27T02:33:15.834Z,0.00
2022-11-27T02:34:15.797Z,0.00
2022-11-27T02:35:15.796Z,0.00
2022-11-27T02:36:15.768Z,0.00
2022-11-27T02:37:15.744Z,0.00
2022-11-27T02:38:15.777Z,0.00
2022-11-27T02:39:15.733Z,0.00
2022-11-27T02:40:15.723Z,0.00
2022-11-27T02:41:15.712Z,0.00
2022-11-27T02:42:15.701Z,0.00
2022-11-27T02:43:15.727Z,0.00
2022-11-27T02:44:15.672Z,0.00
2022-11-27T02:45:15.674Z,0.00
2022-11-27T02:46:15.699Z,0.00
2022-11-27T02:47:15.646Z,0.00
2022-11-27T02:48:15.658Z,0.00
2022-11-27T02:49:15.631Z,0.00
2022-11-27T02:50:15.607Z,0.00
2022-11-27T02:51:15.601Z,0.00
2022-11-27T02:52:15.589Z,0.00
2022-11-27T02:53:15.635Z,0.00
2022-11-27T02:54:15.566Z,0.00
2022-11-27T02:55:15.559Z,0.00
2022-11-27T02:56:15.540Z,0.00
2022-11-27T02:57:15.530Z,0.00
2022-11-27T02:58:15.551Z,0.00
2022-11-27T02:59:15.509Z,0.00
2022-11-27T03:00:15.503Z,0.00
2022-11-27T03:01:15.589Z,0.00
2022-11-27T03:02:15.547Z,0.00
2022-11-27T03:03:15.565Z,0.00
2022-11-27T03:04:15.453Z,0.00
2022-11-27T03:05:15.446Z,0.00
2022-11-27T03:06:15.423Z,0.00
2022-11-27T03:07:15.474Z,0.00
2022-11-27T03:08:15.431Z,0.00
2022-11-27T03:09:15.397Z,0.00
2022-11-27T03:10:15.389Z,0.00
2022-11-27T03:11:15.381Z,0.00
2022-11-27T03:12:15.360Z,0.00
2022-11-27T03:13:15.395Z,0.00
2022-11-27T03:14:15.337Z,0.00
2022-11-27T03:15:15.338Z,0.00
2022-11-27T03:16:15.391Z,0.00
2022-11-27T03:17:15.310Z,0.00
2022-11-27T03:18:15.300Z,0.00
2022-11-27T03:19:15.316Z,0.00
2022-11-27T03:20:15.274Z,0.00
2022-11-27T03:21:15.270Z,0.00
2022-11-27T03:22:15.252Z,0.00
2022-11-27T03:23:15.237Z,0.00
2022-11-27T03:24:15.269Z,0.00
2022-11-27T03:25:15.227Z,0.00
2022-11-27T03:26:15.216Z,0.00
2022-11-27T03:27:15.202Z,0.00
2022-11-27T03:28:15.202Z,0.00
2022-11-27T03:29:15.233Z,0.00
2022-11-27T03:30:15.162Z,0.00
2022-11-27T03:31:15.194Z,0.00
2022-11-27T03:32:15.135Z,0.00
2022-11-27T03:33:15.146Z,0.00
2022-11-27T03:34:15.163Z,0.00
2022-11-27T03:35:15.120Z,0.00
2022-11-27T03:36:15.102Z,0.00
2022-11-27T03:37:15.109Z,0.00
2022-11-27T03:38:15.074Z,0.00
2022-11-27T03:39:15.103Z,0.00
2022-11-27T03:40:15.039Z,0.00
2022-11-27T03:41:15.037Z,0.00
2022-11-27T03:42:15.016Z,0.00
2022-11-27T03:43:15.022Z,0.00
2022-11-27T03:44:15.044Z,0.00
2022-11-27T03:45:15.006Z,0.00
2022-11-27T03:46:15.087Z,0.00
2022-11-27T03:47:15.030Z,0.00
2022-11-27T03:48:14.979Z,0.00
2022-11-27T03:49:14.994Z,0.00
2022-11-27T03:50:14.940Z,0.00
2022-11-27T03:51:14.948Z,0.00
2022-11-27T03:52:14.919Z,0.00
2022-11-27T03:53:14.925Z,0.00
2022-11-27T03:54:14.944Z,0.00
2022-11-27T03:55:14.879Z,0.00
2022-11-27T03:56:14.876Z,0.00
2022-11-27T03:57:14.874Z,0.00
2022-11-27T03:58:14.876Z,0.00
2022-11-27T03:59:14.897Z,0.00
2022-11-27T04:00:14.841Z,0.00
2022-11-27T04:01:14.825Z,0.00
2022-11-27T04:02:14.887Z,0.00
2022-11-27T04:03:14.803Z,0.00
2022-11-27T04:04:14.909Z,0.00
2022-11-27T04:05:14.780Z,0.00
2022-11-27T04:06:14.759Z,0.00
2022-11-27T04:07:14.822Z,0.00
2022-11-27T04:08:14.739Z,0.00
2022-11-27T04:09:14.763Z,0.00
2022-11-27T04:10:14.726Z,0.00
2022-11-27T04:11:14.698Z,0.00
2022-11-27T04:12:14.699Z,0.00
2022-11-27T04:13:14.679Z,0.00
2022-11-27T04:14:14.699Z,0.00
2022-11-27T04:15:14.650Z,0.00
2022-11-27T04:16:14.712Z,0.00
2022-11-27T04:17:14.629Z,0.00
2022-11-27T04:18:14.637Z,0.00
2022-11-27T04:19:14.659Z,0.00
2022-11-27T04:20:14.609Z,0.00
2022-11-27T04:21:14.602Z,0.00
2022-11-27T04:22:14.584Z,0.00
2022-11-27T04:23:14.577Z,0.00
2022-11-27T04:24:14.565Z,0.00
2022-11-27T04:25:14.588Z,0.00
2022-11-27T04:26:14.526Z,0.00
2022-11-27T04:27:14.536Z,0.00
2022-11-27T04:28:14.523Z,0.00
2022-11-27T04:29:14.502Z,0.00
2022-11-27T04:30:14.528Z,0.00
2022-11-27T04:31:14.491Z,0.00
2022-11-27T04:32:14.476Z,0.00
2022-11-27T04:33:14.464Z,0.00
2022-11-27T04:34:14.441Z,0.00
2022-11-27T04:35:14.463Z,0.00
2022-11-27T04:36:14.427Z,0.00
2022-11-27T04:37:14.412Z,0.00
2022-11-27T04:38:14.399Z,0.00
2022-11-27T04:39:14.395Z,0.00
2022-11-27T04:40:14.459Z,0.00
2022-11-27T04:41:14.389Z,0.00
2022-11-27T04:42:14.352Z,0.00
2022-11-27T04:43:14.343Z,0.00
2022-11-27T04:44:14.350Z,0.00
2022-11-27T04:45:14.347Z,0.00
2022-11-27T04:46:14.371Z,0.00
2022-11-27T04:47:14.286Z,0.00
2022-11-27T04:48:14.299Z,0.00
2022-11-27T04:49:14.282Z,0.00
2022-11-27T04:50:14.296Z,0.00
2022-11-27T04:51:14.263Z,0.00
2022-11-27T04:52:14.249Z,0.00
2022-11-27T04:53:14.278Z,0.00
2022-11-27T04:54:14.229Z,0.00
2022-11-27T04:55:14.245Z,0.00
2022-11-27T04:56:14.209Z,0.00
2022-11-27T04:57:14.187Z,0.00
2022-11-27T04:58:14.181Z,0.00
2022-11-27T04:59:14.158Z,0.00
2022-11-27T05:00:14.195Z,0.00
2022-11-27T05:01:14.236Z,0.00
2022-11-27T05:02:14.139Z,0.00
2022-11-27T05:03:14.175Z,0.00
2022-11-27T05:04:14.101Z,0.00
2022-11-27T05:05:14.131Z,0.00
2022-11-27T05:06:14.080Z,0.00
2022-11-27T05:07:14.119Z,0.00
2022-11-27T05:08:14.064Z,0.00
2022-11-27T05:09:14.073Z,0.00
2022-11-27T05:10:14.089Z,0.00
2022-11-27T05:11:14.055Z,0.00
2022-11-27T05:12:14.024Z,0.00
2022-11-27T05:13:13.995Z,0.00
2022-11-27T05:14:13.996Z,0.00
2022-11-27T05:15:14.026Z,0.00
2022-11-27T05:16:14.014Z,0.00
2022-11-27T05:17:13.960Z,0.00
2022-11-27T05:18:13.941Z,0.00
2022-11-27T05:19:13.932Z,0.00
2022-11-27T05:20:13.954Z,0.00
2022-11-27T05:21:13.931Z,0.00
2022-11-27T05:22:13.901Z,0.00
2022-11-27T05:23:13.900Z,0.00
2022-11-27T05:24:13.882Z,0.00
2022-11-27T05:25:13.906Z,0.00
2022-11-27T05:26:13.885Z,0.00
2022-11-27T05:27:13.866Z,0.00
2022-11-27T05:28:13.849Z,0.00
2022-11-27T05:29:13.814Z,0.00
2022-11-27T05:30:13.852Z,0.00
2022-11-27T05:31:13.864Z,0.00
2022-11-27T05:32:13.795Z,0.00
2022-11-27T05:33:13.780Z,0.00
2022-11-27T05:34:13.781Z,0.00
2022-11-27T05:35:13.760Z,0.00
2022-11-27T05:36:13.784Z,0.00
2022-11-27T05:37:18.000Z,0.00
2022-11-27T05:38:14.724Z,0.00
2022-11-27T05:39:13.716Z,0.00
2022-11-27T05:40:13.708Z,0.00
2022-11-27T05:41:13.732Z,0.00
2022-11-27T05:42:13.687Z,0.00
2022-11-27T05:43:13.658Z,0.00
2022-11-27T05:44:13.669Z,0.00
2022-11-27T05:45:13.637Z,0.00
2022-11-27T05:46:13.728Z,0.00
2022-11-27T05:47:13.618Z,0.00
2022-11-27T05:48:13.641Z,0.00
2022-11-27T05:49:13.599Z,0.00
2022-11-27T05:50:13.599Z,0.00
2022-11-27T05:51:13.594Z,0.00
2022-11-27T05:52:13.556Z,0.00
2022-11-27T05:53:13.540Z,0.00
2022-11-27T05:54:13.542Z,0.00
2022-11-27T05:55:13.545Z,0.00
2022-11-27T05:56:13.571Z,0.00
2022-11-27T05:57:13.519Z,0.00
2022-11-27T05:58:13.519Z,0.00
2022-11-27T05:59:13.479Z,0.00
2022-11-27T06:00:13.559Z,4.00
2022-11-27T06:01:13.529Z,0.00
2022-11-27T06:02:19.556Z,0.00
2022-11-27T06:03:14.466Z,4.00
2022-11-27T06:04:13.443Z,0.00
2022-11-27T06:05:13.420Z,4.00
2022-11-27T06:06:13.466Z,4.00
2022-11-27T06:07:13.433Z,8.00
2022-11-27T06:08:13.386Z,8.00
2022-11-27T06:09:13.750Z,8.00
2022-11-27T06:10:13.364Z,8.00
2022-11-27T06:11:13.383Z,8.00
2022-11-27T06:12:13.373Z,8.00
2022-11-27T06:13:13.317Z,16.00
2022-11-27T06:14:13.318Z,16.00
2022-11-27T06:15:13.297Z,16.00
2022-11-27T06:16:13.376Z,24.00
2022-11-27T06:17:13.281Z,28.00
2022-11-27T06:18:13.284Z,32.00
2022-11-27T06:19:13.265Z,36.00
2022-11-27T06:20:13.263Z,40.00
2022-11-27T06:21:13.255Z,48.00
2022-11-27T06:22:13.229Z,56.00
2022-11-27T06:23:13.223Z,68.00
2022-11-27T06:24:13.195Z,72.00
2022-11-27T06:25:13.181Z,88.00
2022-11-27T06:26:13.204Z,96.00
2022-11-27T06:27:13.175Z,112.00
2022-11-27T06:28:13.155Z,128.00
2022-11-27T06:29:13.140Z,144.00
2022-11-27T06:30:13.133Z,160.00
2022-11-27T06:31:17.538Z,180.00
2022-11-27T06:32:14.177Z,200.00
2022-11-27T06:33:13.104Z,220.00
2022-11-27T06:34:13.109Z,248.00
2022-11-27T06:35:13.076Z,272.00
2022-11-27T06:36:13.112Z,296.00
2022-11-27T06:37:13.647Z,328.00
2022-11-27T06:38:13.060Z,360.00
2022-11-27T06:39:13.038Z,388.00
2022-11-27T06:40:13.023Z,420.00
2022-11-27T06:41:13.047Z,452.00
2022-11-27T06:42:13.020Z,484.00
2022-11-27T06:43:13.000Z,516.00
2022-11-27T06:44:12.991Z,556.00
2022-11-27T06:45:12.960Z,600.00
2022-11-27T06:46:13.017Z,644.00
2022-11-27T06:47:12.933Z,692.00
2022-11-27T06:48:12.941Z,736.00
2022-11-27T06:49:12.912Z,788.00
2022-11-27T06:50:12.912Z,840.00
2022-11-27T06:51:12.938Z,904.00
2022-11-27T06:52:12.881Z,968.00
2022-11-27T06:53:12.875Z,1036.00
2022-11-27T06:54:12.867Z,1100.00
2022-11-27T06:55:12.860Z,1164.00
2022-11-27T06:56:12.869Z,1232.00
2022-11-27T06:57:12.843Z,1312.00
2022-11-27T06:58:12.810Z,1392.00
2022-11-27T06:59:12.788Z,1464.00
2022-11-27T07:00:12.800Z,1528.00
2022-11-27T07:01:12.860Z,1592.00
2022-11-27T07:02:12.812Z,1652.00
2022-11-27T07:03:12.759Z,1720.00
2022-11-27T07:04:12.762Z,1784.00
2022-11-27T07:05:12.760Z,1856.00
2022-11-27T07:06:12.796Z,1920.00
2022-11-27T07:07:12.774Z,1988.00
2022-11-27T07:08:12.724Z,2068.00
2022-11-27T07:09:12.712Z,2140.00
2022-11-27T07:10:12.684Z,2216.00
2022-11-27T07:11:12.684Z,2288.00
2022-11-27T07:12:12.708Z,2360.00
2022-11-27T07:13:12.679Z,2432.00
2022-11-27T07:14:12.638Z,2504.00
2022-11-27T07:15:12.713Z,2584.00
2022-11-27T07:16:12.672Z,2660.00
2022-11-27T07:17:12.645Z,2736.00
2022-11-27T07:18:12.598Z,2812.00
2022-11-27T07:19:12.583Z,2892.00
2022-11-27T07:20:12.562Z,2976.00
2022-11-27T07:21:12.554Z,3068.00
2022-11-27T07:22:12.585Z,3168.00
2022-11-27T07:23:12.539Z,3276.00
2022-11-27T07:24:12.514Z,3384.00
2022-11-27T07:25:12.518Z,3492.00
2022-11-27T07:26:12.505Z,3596.00
2022-11-27T07:27:12.524Z,3704.00
2022-11-27T07:28:17.407Z,3800.00
2022-11-27T07:29:13.487Z,3892.00
2022-11-27T07:30:12.444Z,3980.00
2022-11-27T07:31:12.461Z,4052.00
2022-11-27T07:32:12.488Z,4136.00
2022-11-27T07:33:12.420Z,4232.00
2022-11-27T07:34:17.121Z,4336.00
2022-11-27T07:35:13.393Z,4432.00
2022-11-27T07:36:12.423Z,4524.00
2022-11-27T07:37:12.420Z,4616.00
2022-11-27T07:38:12.395Z,4700.00
2022-11-27T07:39:12.355Z,4756.00
2022-11-27T07:40:13.073Z,4808.00
2022-11-27T07:41:12.339Z,4864.00
2022-11-27T07:42:36.995Z,4900.00
2022-11-27T07:43:13.314Z,4924.00
2022-11-27T07:44:12.322Z,4944.00
2022-11-27T07:45:12.295Z,4996.00
2022-11-27T07:46:12.324Z,5012.00
2022-11-27T07:47:12.302Z,5092.00
2022-11-27T07:48:12.257Z,5268.00
2022-11-27T07:49:12.234Z,5600.00
2022-11-27T07:50:12.252Z,5708.00
2022-11-27T07:51:12.218Z,5624.00
2022-11-27T07:52:12.258Z,5864.00
2022-11-27T07:53:12.205Z,6488.00
2022-11-27T07:54:12.208Z,6780.00
2022-11-27T07:55:12.187Z,6700.00
2022-11-27T07:56:12.159Z,6580.00
2022-11-27T07:57:12.165Z,6556.00
2022-11-27T07:58:12.187Z,6560.00
2022-11-27T07:59:12.151Z,6544.00
2022-11-27T08:00:12.127Z,6604.00
2022-11-27T08:01:12.147Z,6684.00
2022-11-27T08:02:12.089Z,6576.00
2022-11-27T08:03:12.103Z,6540.00
2022-11-27T08:04:12.127Z,6520.00
2022-11-27T08:05:13.267Z,6640.00
2022-11-27T08:06:12.066Z,6652.00
2022-11-27T08:07:12.075Z,6528.00
2022-11-27T08:08:12.072Z,6612.00
2022-11-27T08:09:12.016Z,6868.00
2022-11-27T08:10:12.025Z,6716.00
2022-11-27T08:11:11.987Z,6684.00
2022-11-27T08:12:11.997Z,6704.00
2022-11-27T08:13:12.006Z,6812.00
2022-11-27T08:14:11.957Z,6828.00
2022-11-27T08:15:11.990Z,6648.00
2022-11-27T08:16:11.989Z,6676.00
2022-11-27T08:17:11.941Z,6656.00
2022-11-27T08:18:11.958Z,6988.00
2022-11-27T08:19:11.900Z,6732.00
2022-11-27T08:20:11.928Z,6872.00
2022-11-27T08:21:11.893Z,7004.00
2022-11-27T08:22:11.891Z,7492.00
2022-11-27T08:23:11.911Z,7180.00
2022-11-27T08:24:11.870Z,6800.00
2022-11-27T08:25:11.840Z,6584.00
2022-11-27T08:26:11.838Z,7352.00
2022-11-27T08:27:11.821Z,7260.00
2022-11-27T08:28:11.841Z,7272.00
2022-11-27T08:29:11.834Z,7332.00
2022-11-27T08:30:11.765Z,6900.00
2022-11-27T08:31:11.827Z,7184.00
2022-11-27T08:32:11.811Z,7088.00
2022-11-27T08:33:11.779Z,7632.00
2022-11-27T08:34:11.733Z,7388.00
2022-11-27T08:35:11.715Z,7344.00
2022-11-27T08:36:17.645Z,7512.00
2022-11-27T08:37:12.703Z,8128.00
2022-11-27T08:38:11.733Z,8164.00
2022-11-27T08:39:11.680Z,8120.00
2022-11-27T08:40:11.682Z,7984.00
2022-11-27T08:41:11.682Z,7784.00
2022-11-27T08:42:11.645Z,7772.00
2022-11-27T08:43:11.680Z,8132.00
2022-11-27T08:44:11.624Z,8536.00
2022-11-27T08:45:11.596Z,8604.00
2022-11-27T08:46:11.688Z,8508.00
2022-11-27T08:47:11.576Z,8212.00
2022-11-27T08:48:11.581Z,8048.00
2022-11-27T08:49:11.612Z,8100.00
2022-11-27T08:50:11.562Z,8372.00
2022-11-27T08:51:11.554Z,8552.00
2022-11-27T08:52:11.527Z,8120.00
2022-11-27T08:53:11.528Z,8144.00
2022-11-27T08:54:11.544Z,8136.00
2022-11-27T08:55:11.508Z,8228.00
2022-11-27T08:56:11.491Z,8556.00
2022-11-27T08:57:11.486Z,9124.00
2022-11-27T08:58:11.461Z,8972.00
2022-11-27T08:59:11.479Z,7672.00
2022-11-27T09:00:11.439Z,7248.00
2022-11-27T09:01:11.488Z,7544.00
2022-11-27T09:02:11.416Z,7668.00
2022-11-27T09:03:11.408Z,7708.00
2022-11-27T09:04:11.432Z,7512.00
2022-11-27T09:05:11.398Z,7544.00
2022-11-27T09:06:11.381Z,7532.00
2022-11-27T09:07:11.418Z,7480.00
2022-11-27T09:08:11.333Z,7556.00
2022-11-27T09:09:11.363Z,8072.00
2022-11-27T09:10:11.440Z,8376.00
2022-11-27T09:11:11.317Z,9180.00
2022-11-27T09:12:11.306Z,9320.00
2022-11-27T09:13:11.308Z,8820.00
2022-11-27T09:14:11.311Z,8372.00
2022-11-27T09:15:11.290Z,7712.00
2022-11-27T09:16:11.313Z,7328.00
2022-11-27T09:17:11.253Z,7520.00
2022-11-27T09:18:11.223Z,8804.00
2022-11-27T09:19:11.258Z,9816.00
2022-11-27T09:20:11.213Z,9132.00
2022-11-27T09:21:11.208Z,8672.00
2022-11-27T09:22:11.190Z,8324.00
2022-11-27T09:23:14.387Z,9004.00
2022-11-27T09:24:11.198Z,9676.00
2022-11-27T09:25:11.154Z,10952.00
2022-11-27T09:26:11.157Z,11548.00
2022-11-27T09:27:11.138Z,9892.00
2022-11-27T09:28:11.138Z,8356.00
2022-11-27T09:29:11.144Z,8032.00
2022-11-27T09:30:11.090Z,8748.00
2022-11-27T09:31:11.087Z,9348.00
2022-11-27T09:32:11.175Z,8332.00
2022-11-27T09:33:11.069Z,8784.00
2022-11-27T09:34:11.083Z,8200.00
2022-11-27T09:35:11.126Z,7896.00
2022-11-27T09:36:11.032Z,7916.00
2022-11-27T09:37:11.017Z,8000.00
2022-11-27T09:38:11.012Z,7860.00
2022-11-27T09:39:11.066Z,8268.00
2022-11-27T09:40:10.983Z,10300.00
2022-11-27T09:41:10.963Z,13436.00
2022-11-27T09:42:10.956Z,14064.00
2022-11-27T09:43:10.949Z,11692.00
2022-11-27T09:44:10.973Z,10656.00
2022-11-27T09:45:10.933Z,10032.00
2022-11-27T09:46:10.998Z,10564.00
2022-11-27T09:47:10.910Z,10804.00
2022-11-27T09:48:10.904Z,12140.00
2022-11-27T09:49:10.933Z,11544.00
2022-11-27T09:50:10.883Z,10340.00
2022-11-27T09:51:10.856Z,11144.00
2022-11-27T09:52:10.852Z,9904.00
2022-11-27T09:53:10.835Z,10640.00
2022-11-27T09:54:10.866Z,12020.00
2022-11-27T09:55:10.825Z,10676.00
2022-11-27T09:56:10.829Z,9092.00
2022-11-27T09:57:10.803Z,8820.00
2022-11-27T09:58:10.784Z,7392.00
2022-11-27T09:59:10.811Z,7340.00
2022-11-27T10:00:10.786Z,7716.00
2022-11-27T10:01:10.820Z,7620.00
2022-11-27T10:02:10.861Z,7576.00
2022-11-27T10:03:10.823Z,9808.00
2022-11-27T10:04:10.723Z,17216.00
2022-11-27T10:05:14.641Z,21536.00
2022-11-27T10:06:10.690Z,20128.00
2022-11-27T10:07:10.752Z,16964.00
2022-11-27T10:08:10.776Z,14012.00
2022-11-27T10:09:10.661Z,18400.00
2022-11-27T10:10:10.698Z,24352.00
2022-11-27T10:11:10.648Z,21728.00
2022-11-27T10:12:10.629Z,19264.00
2022-11-27T10:13:10.622Z,21024.00
2022-11-27T10:14:10.604Z,17472.00
2022-11-27T10:15:10.644Z,14292.00
2022-11-27T10:16:10.625Z,15020.00
2022-11-27T10:17:10.642Z,17088.00
2022-11-27T10:18:10.676Z,17312.00
2022-11-27T10:19:10.550Z,13248.00
2022-11-27T10:20:10.572Z,9260.00
2022-11-27T10:21:10.526Z,9752.00
2022-11-27T10:22:10.510Z,11780.00
2022-11-27T10:23:10.530Z,12012.00
2022-11-27T10:24:10.487Z,11156.00
2022-11-27T10:25:10.517Z,11444.00
2022-11-27T10:26:10.467Z,12036.00
2022-11-27T10:27:10.459Z,13316.00
2022-11-27T10:28:10.452Z,12140.00
2022-11-27T10:29:10.432Z,12688.00
2022-11-27T10:30:10.441Z,13236.00
2022-11-27T10:31:10.437Z,15612.00
2022-11-27T10:32:26.818Z,21376.00
2022-11-27T10:33:11.397Z,26016.00
2022-11-27T10:34:10.371Z,26816.00
2022-11-27T10:35:10.409Z,22080.00
2022-11-27T10:36:10.357Z,18208.00
2022-11-27T10:37:10.353Z,14072.00
2022-11-27T10:38:10.343Z,12716.00
2022-11-27T10:39:10.347Z,13836.00
2022-11-27T10:40:10.365Z,18624.00
2022-11-27T10:41:18.585Z,24640.00
2022-11-27T10:42:11.308Z,30080.00
2022-11-27T10:43:10.282Z,31520.00
2022-11-27T10:44:10.277Z,33536.00
2022-11-27T10:45:10.319Z,36864.00
2022-11-27T10:46:10.299Z,36704.00
2022-11-27T10:47:10.239Z,37664.00
2022-11-27T10:48:10.214Z,36320.00
2022-11-27T10:49:10.213Z,32864.00
2022-11-27T10:50:10.230Z,33568.00
2022-11-27T10:51:10.182Z,31488.00
2022-11-27T10:52:10.169Z,30656.00
2022-11-27T10:53:10.180Z,31616.00
2022-11-27T10:54:10.173Z,31456.00
2022-11-27T10:55:10.274Z,32256.00
2022-11-27T10:56:10.153Z,32832.00
2022-11-27T10:57:10.127Z,32512.00
2022-11-27T10:58:10.114Z,32960.00
2022-11-27T10:59:10.097Z,32832.00
2022-11-27T11:00:10.110Z,32480.00
2022-11-27T11:01:10.163Z,32128.00
2022-11-27T11:02:10.163Z,32736.00
2022-11-27T11:03:10.047Z,32512.00
2022-11-27T11:04:35.944Z,32992.00
2022-11-27T11:05:32.800Z,32768.00
2022-11-27T11:06:20.618Z,32864.00
2022-11-27T11:07:11.025Z,34368.00
2022-11-27T11:08:09.999Z,29728.00
2022-11-27T11:09:10.010Z,33696.00
2022-11-27T11:10:10.021Z,33664.00
2022-11-27T11:11:09.963Z,33760.00
2022-11-27T11:12:09.952Z,34240.00
2022-11-27T11:13:09.946Z,35488.00
2022-11-27T11:14:09.926Z,36960.00
2022-11-27T11:15:09.928Z,38208.00
2022-11-27T11:16:14.527Z,37024.00
2022-11-27T11:17:10.931Z,35392.00
2022-11-27T11:18:09.902Z,35264.00
2022-11-27T11:19:09.871Z,35744.00
2022-11-27T11:20:09.863Z,35648.00
2022-11-27T11:21:09.892Z,35744.00
2022-11-27T11:22:13.305Z,35840.00
2022-11-27T11:23:09.813Z,36032.00
2022-11-27T11:24:09.820Z,36160.00
2022-11-27T11:25:09.793Z,36320.00
2022-11-27T11:26:09.822Z,36160.00
2022-11-27T11:27:09.787Z,35488.00
2022-11-27T11:28:09.794Z,34112.00
2022-11-27T11:29:09.758Z,33824.00
2022-11-27T11:30:09.753Z,33728.00
2022-11-27T11:31:09.790Z,33728.00
2022-11-27T11:32:09.828Z,33440.00
2022-11-27T11:33:09.739Z,33632.00
2022-11-27T11:34:09.703Z,33600.00
2022-11-27T11:35:09.685Z,33248.00
2022-11-27T11:36:09.670Z,33248.00
2022-11-27T11:37:09.689Z,30880.00
2022-11-27T11:38:09.668Z,28576.00
2022-11-27T11:39:09.648Z,28416.00
2022-11-27T11:40:14.599Z,31360.00
2022-11-27T11:41:10.613Z,31360.00
2022-11-27T11:42:09.661Z,32032.00
2022-11-27T11:43:09.603Z,30720.00
2022-11-27T11:44:09.595Z,30240.00
2022-11-27T11:45:09.581Z,30240.00
2022-11-27T11:46:09.707Z,29728.00
2022-11-27T11:47:09.614Z,30944.00
2022-11-27T11:48:09.556Z,30976.00
2022-11-27T11:49:09.533Z,30176.00
2022-11-27T11:50:09.515Z,29536.00
2022-11-27T11:51:09.517Z,29216.00
2022-11-27T11:52:09.526Z,29472.00
2022-11-27T11:53:09.484Z,29344.00
2022-11-27T11:54:09.478Z,29216.00
2022-11-27T11:55:09.465Z,28832.00
2022-11-27T11:56:09.456Z,28992.00
2022-11-27T11:57:09.472Z,29728.00
2022-11-27T11:58:09.427Z,29984.00
2022-11-27T11:59:09.418Z,29504.00
2022-11-27T12:00:09.411Z,29312.00
2022-11-27T12:01:26.563Z,29664.00
2022-11-27T12:02:10.451Z,29920.00
2022-11-27T12:03:09.388Z,29984.00
2022-11-27T12:04:09.412Z,29920.00
2022-11-27T12:05:09.353Z,28928.00
2022-11-27T12:06:09.354Z,28000.00
2022-11-27T12:07:09.361Z,27200.00
2022-11-27T12:08:09.383Z,26944.00
2022-11-27T12:09:09.335Z,26752.00
2022-11-27T12:10:09.303Z,26720.00
2022-11-27T12:11:09.274Z,27040.00
2022-11-27T12:12:09.323Z,26400.00
2022-11-27T12:13:09.294Z,25856.00
2022-11-27T12:14:09.254Z,25568.00
2022-11-27T12:15:09.259Z,24288.00
2022-11-27T12:16:09.282Z,19136.00
2022-11-27T12:17:09.245Z,17696.00
2022-11-27T12:18:09.222Z,13712.00
2022-11-27T12:19:09.198Z,9892.00
2022-11-27T12:20:09.192Z,8576.00
2022-11-27T12:21:09.185Z,8192.00
2022-11-27T12:22:09.195Z,7640.00
2022-11-27T12:23:09.152Z,8768.00
2022-11-27T12:24:09.147Z,9024.00
2022-11-27T12:25:09.134Z,9908.00
2022-11-27T12:26:09.113Z,10344.00
2022-11-27T12:27:09.152Z,11104.00
2022-11-27T12:28:09.098Z,12584.00
2022-11-27T12:29:09.081Z,13320.00
2022-11-27T12:30:09.075Z,14028.00
2022-11-27T12:31:09.095Z,16352.00
2022-11-27T12:32:09.084Z,16672.00
2022-11-27T12:33:09.032Z,18432.00
2022-11-27T12:34:09.032Z,18304.00
2022-11-27T12:35:09.025Z,20032.00
2022-11-27T12:36:09.028Z,20192.00